Time;durP1;ratioP1;P1;durP2;ratioP2;P2;SDS_P1;SDS_P2;PMS_P1;PMS_P2;Temp;Humidity;BMP_temperature;BMP_pressure;BME280_temperature;BME280_humidity;BME280_pressure;Samples;Min_cycle;Max_cycle;Signal;HPM_P1;HPM_P2
2022/09/30 00:00:06;;;;;;;9.50;7.07;;;;;;;10.14;90.07;100759.59;5027808;28;20143;-75
2022/09/30 00:02:31;;;;;;;9.73;6.57;;;;;;;10.10;90.09;100756.75;5024870;28;20101;-75
2022/09/30 00:04:56;;;;;;;8.68;7.40;;;;;;;10.12;90.44;100757.19;5025265;28;20033;-75
2022/09/30 00:07:22;;;;;;;8.85;6.95;;;;;;;10.11;90.18;100758.34;5023096;28;20104;-75
2022/09/30 00:09:48;;;;;;;8.27;6.43;;;;;;;10.07;90.07;100759.50;5017434;28;20029;-75
2022/09/30 00:12:13;;;;;;;6.55;5.88;;;;;;;10.04;90.54;100763.06;5022110;28;20041;-75
2022/09/30 00:14:39;;;;;;;8.02;6.38;;;;;;;10.05;90.30;100767.47;5019691;28;20033;-75
2022/09/30 00:17:04;;;;;;;6.18;5.53;;;;;;;10.04;90.38;100765.84;5026161;28;20084;-75
2022/09/30 00:19:29;;;;;;;9.32;6.38;;;;;;;10.02;90.16;100762.63;5024104;28;20030;-75
2022/09/30 00:21:55;;;;;;;6.60;5.00;;;;;;;9.99;89.91;100761.38;5021230;28;21669;-75
2022/09/30 00:24:20;;;;;;;8.25;6.32;;;;;;;9.98;90.03;100766.16;5024573;28;20126;-75
2022/09/30 00:26:46;;;;;;;7.78;5.90;;;;;;;9.99;89.45;100761.38;5035644;28;20052;-75
2022/09/30 00:29:11;;;;;;;8.05;5.35;;;;;;;9.94;90.05;100756.91;5023077;28;20026;-74
2022/09/30 00:31:37;;;;;;;11.55;6.88;;;;;;;9.93;89.88;100763.69;5021927;28;20029;-75
2022/09/30 00:34:05;;;;;;;7.75;5.57;;;;;;;9.90;89.68;100761.63;5013150;28;20022;-75
2022/09/30 00:36:51;;;;;;;7.85;6.43;;;;;;;9.91;89.14;100763.28;5022436;28;20099;-75
2022/09/30 00:39:23;;;;;;;8.75;5.80;;;;;;;9.88;89.75;100764.00;5019361;28;20041;-75
2022/09/30 00:41:52;;;;;;;9.15;5.47;;;;;;;9.84;89.86;100763.16;5027753;28;20061;-75
2022/09/30 00:44:43;;;;;;;6.82;4.95;;;;;;;9.84;89.26;100776.31;5018468;28;20516;-75
2022/09/30 00:47:29;;;;;;;7.43;5.38;;;;;;;9.82;89.51;100775.88;5020935;28;20018;-75
2022/09/30 00:50:01;;;;;;;6.35;5.53;;;;;;;9.78;89.11;100775.81;5020155;28;20049;-75
2022/09/30 00:52:27;;;;;;;6.78;4.93;;;;;;;9.74;89.32;100775.78;5018351;28;20390;-75
2022/09/30 00:54:54;;;;;;;6.78;5.78;;;;;;;9.73;88.82;100782.53;5023027;28;20157;-75
2022/09/30 00:57:20;;;;;;;6.40;5.45;;;;;;;9.73;88.83;100788.13;5039111;28;20560;-75
2022/09/30 00:59:49;;;;;;;6.55;4.90;;;;;;;9.71;89.06;100782.13;5034384;28;20063;-75
2022/09/30 01:02:15;;;;;;;7.18;5.75;;;;;;;9.73;89.19;100784.53;5022436;28;20541;-75
2022/09/30 01:04:42;;;;;;;6.65;5.63;;;;;;;9.71;88.67;100775.72;5024150;28;20053;-75
2022/09/30 01:07:09;;;;;;;7.15;5.68;;;;;;;9.64;89.26;100773.63;5027446;28;20042;-75
2022/09/30 01:09:37;;;;;;;7.10;5.32;;;;;;;9.53;89.50;100781.03;5028751;28;20029;-75
2022/09/30 01:12:10;;;;;;;8.13;6.10;;;;;;;9.61;89.27;100785.53;5029816;28;20041;-75
2022/09/30 01:14:36;;;;;;;7.32;5.22;;;;;;;9.60;89.72;100785.94;5026740;28;20503;-75
2022/09/30 01:17:09;;;;;;;6.85;5.97;;;;;;;9.54;89.21;100783.44;5025445;28;20030;-75
2022/09/30 01:19:57;;;;;;;9.35;6.70;;;;;;;9.60;88.79;100791.53;5029821;28;20413;-75
2022/09/30 01:22:29;;;;;;;6.55;5.57;;;;;;;9.54;88.95;100791.81;5020219;28;20029;-75
2022/09/30 01:25:22;;;;;;;6.90;6.03;;;;;;;9.52;89.11;100788.59;5027609;28;20410;-75
2022/09/30 01:28:06;;;;;;;7.60;5.45;;;;;;;9.49;89.41;100785.75;5026377;28;20037;-75
2022/09/30 01:31:10;;;;;;;6.90;5.55;;;;;;;9.50;88.77;100782.56;5029878;28;20554;-75
2022/09/30 01:33:54;;;;;;;7.10;6.13;;;;;;;9.42;88.44;100786.41;5022063;28;20055;-75
2022/09/30 01:37:01;;;;;;;7.32;5.88;;;;;;;9.39;88.65;100791.94;5029405;28;20497;-75
2022/09/30 01:39:37;;;;;;;8.02;5.60;;;;;;;9.41;88.90;100790.41;5025756;28;20029;-75
2022/09/30 01:42:16;;;;;;;8.95;6.35;;;;;;;9.35;89.18;100797.47;5027808;28;20022;-75
2022/09/30 01:45:01;;;;;;;7.43;5.97;;;;;;;9.37;89.42;100795.13;5018715;28;20033;-75
2022/09/30 01:47:43;;;;;;;7.43;5.78;;;;;;;9.38;89.44;100793.13;5018513;28;20068;-75
2022/09/30 01:50:27;;;;;;;7.75;5.75;;;;;;;9.37;88.87;100792.31;5020529;28;20733;-75
2022/09/30 01:53:17;;;;;;;7.60;6.03;;;;;;;9.37;89.27;100792.31;5020396;28;20037;-75
2022/09/30 01:55:56;;;;;;;7.72;6.22;;;;;;;9.35;88.78;100792.69;5018565;28;20531;-75
2022/09/30 01:58:36;;;;;;;7.63;5.78;;;;;;;9.33;89.16;100788.66;5021927;28;20493;-76
2022/09/30 02:01:07;;;;;;;8.57;5.93;;;;;;;9.32;89.01;100787.06;5022775;28;20042;-74
2022/09/30 02:03:44;;;;;;;7.82;5.82;;;;;;;9.30;88.85;100789.41;5022111;28;20120;-75
2022/09/30 02:06:15;;;;;;;8.75;6.82;;;;;;;9.30;88.82;100795.78;5024795;28;20044;-75
2022/09/30 02:08:45;;;;;;;6.75;5.80;;;;;;;9.23;89.24;100794.84;5019350;28;20083;-75
2022/09/30 02:11:17;;;;;;;7.93;5.70;;;;;;;9.25;88.77;100786.91;5025328;28;20485;-75
2022/09/30 02:14:03;;;;;;;8.80;6.50;;;;;;;9.22;88.98;100794.03;5018921;28;20837;-75
2022/09/30 02:16:39;;;;;;;11.45;5.57;;;;;;;9.26;88.57;100791.31;5029068;28;20038;-75
2022/09/30 02:19:15;;;;;;;8.30;5.78;;;;;;;9.19;89.06;100791.19;5025863;28;20571;-75
2022/09/30 02:21:43;;;;;;;8.25;5.55;;;;;;;9.18;88.95;100792.38;5025149;28;20470;-75
2022/09/30 02:24:13;;;;;;;8.63;5.82;;;;;;;9.16;88.52;100792.72;5028033;28;20123;-75
2022/09/30 02:26:42;;;;;;;7.55;5.88;;;;;;;9.12;88.35;100792.66;5024366;28;20439;-75
2022/09/30 02:29:22;;;;;;;6.68;5.20;;;;;;;9.15;88.01;100797.53;5025964;28;20041;-75
2022/09/30 02:31:53;;;;;;;10.85;5.10;;;;;;;9.13;87.90;100793.50;5028569;28;20029;-75
2022/09/30 02:34:24;;;;;;;8.27;5.68;;;;;;;9.09;88.46;100789.81;5019937;28;20389;-75
2022/09/30 02:37:03;;;;;;;6.70;5.15;;;;;;;9.09;88.15;100793.41;5029029;28;20044;-75
2022/09/30 02:39:36;;;;;;;6.63;5.30;;;;;;;9.04;88.24;100796.50;5019697;28;20139;-75
2022/09/30 02:42:19;;;;;;;7.68;5.57;;;;;;;9.03;88.51;100785.72;5024925;28;20084;-74
2022/09/30 02:44:46;;;;;;;6.35;4.97;;;;;;;8.97;88.52;100798.34;5019710;28;20029;-75
2022/09/30 02:47:27;;;;;;;6.95;4.95;;;;;;;8.99;88.31;100799.59;5016828;28;20076;-75
2022/09/30 02:50:10;;;;;;;6.22;5.00;;;;;;;8.94;88.30;100799.91;5014961;28;20604;-75
2022/09/30 02:52:54;;;;;;;8.60;4.90;;;;;;;8.95;88.02;100802.31;5016367;28;20268;-75
2022/09/30 02:55:50;;;;;;;6.28;5.18;;;;;;;8.92;88.15;100799.47;5022370;28;20083;-75
2022/09/30 02:58:17;;;;;;;5.95;4.05;;;;;;;8.92;87.30;100803.06;5020939;28;20037;-75
2022/09/30 03:00:43;;;;;;;7.03;4.95;;;;;;;8.92;87.86;100813.41;5017583;28;20136;-75
2022/09/30 03:03:17;;;;;;;5.22;4.40;;;;;;;8.90;87.25;100815.78;5018479;28;20026;-75
2022/09/30 03:05:43;;;;;;;5.65;4.45;;;;;;;8.91;87.20;100806.22;5015820;28;20041;-75
2022/09/30 03:08:10;;;;;;;6.25;4.75;;;;;;;8.90;87.44;100804.59;5019058;28;20033;-74
2022/09/30 03:10:36;;;;;;;6.55;4.65;;;;;;;8.82;88.02;100809.22;5027667;28;20044;-75
2022/09/30 03:13:19;;;;;;;6.95;5.18;;;;;;;8.85;87.90;100808.47;5023302;28;20033;-75
2022/09/30 03:16:29;;;;;;;5.57;4.35;;;;;;;8.82;87.60;100808.44;5019067;28;20037;-75
2022/09/30 03:18:54;;;;;;;5.00;3.92;;;;;;;8.83;87.64;100798.88;5007583;28;20064;-75
2022/09/30 03:21:47;;;;;;;7.35;4.35;;;;;;;8.77;87.79;100794.75;5017782;28;20555;-75
2022/09/30 03:24:41;;;;;;;6.78;4.40;;;;;;;8.78;87.35;100813.13;5017482;28;20592;-75
2022/09/30 03:27:14;;;;;;;;;;;;;;;8.77;87.38;100814.28;5023040;28;20041;-73
2022/09/30 03:29:55;;;;;;;6.18;4.15;;;;;;;8.74;87.33;100813.84;5020756;28;20011;-75
2022/09/30 03:32:36;;;;;;;4.68;3.42;;;;;;;8.71;87.38;100814.59;5020785;28;20033;-75
2022/09/30 03:35:26;;;;;;;4.90;3.90;;;;;;;8.71;86.93;100813.78;5026918;28;20056;-75
2022/09/30 03:38:11;;;;;;;5.80;4.00;;;;;;;8.67;86.59;100826.84;5018005;28;20026;-75
2022/09/30 03:40:51;;;;;;;4.43;3.80;;;;;;;8.59;87.25;100831.47;5028752;28;20442;-75
2022/09/30 03:43:34;;;;;;;5.72;4.05;;;;;;;8.64;87.20;100814.41;5021752;28;20044;-75
2022/09/30 03:46:10;;;;;;;5.65;3.65;;;;;;;8.59;86.82;100808.34;5019479;28;20172;-74
2022/09/30 03:48:38;;;;;;;3.78;3.38;;;;;;;8.61;86.98;100811.59;5018734;28;20076;-75
2022/09/30 03:51:05;;;;;;;3.75;3.30;;;;;;;8.57;87.12;100810.69;5025659;28;20052;-75
2022/09/30 03:53:37;;;;;;;5.13;3.40;;;;;;;8.57;87.07;100813.47;5018040;28;20025;-75
2022/09/30 03:56:02;;;;;;;5.88;3.55;;;;;;;8.47;87.27;100814.84;5020757;28;20493;-75
2022/09/30 03:58:27;;;;;;;4.75;3.45;;;;;;;8.49;87.01;100812.50;5020531;28;20029;-74
2022/09/30 04:00:55;;;;;;;6.45;4.03;;;;;;;8.50;87.36;100809.38;5018488;28;20131;-75
2022/09/30 04:03:22;;;;;;;4.50;3.60;;;;;;;8.44;87.57;100821.19;5019434;28;20153;-75
2022/09/30 04:05:48;;;;;;;4.57;3.35;;;;;;;8.44;87.36;100821.19;5022319;28;20148;-75
2022/09/30 04:08:14;;;;;;;5.45;4.10;;;;;;;8.51;86.83;100829.69;5024254;28;20112;-75
2022/09/30 04:10:43;;;;;;;8.32;3.15;;;;;;;8.53;86.14;100835.72;5027853;28;20388;-75
2022/09/30 04:13:09;;;;;;;6.25;3.85;;;;;;;8.42;87.37;100835.47;5024136;28;20029;-75
2022/09/30 04:15:35;;;;;;;5.43;3.03;;;;;;;8.43;86.82;100847.44;5027248;28;20037;-75
2022/09/30 04:18:00;;;;;;;4.43;3.47;;;;;;;8.43;86.82;100845.47;5021636;28;20402;-75
2022/09/30 04:20:26;;;;;;;4.97;4.28;;;;;;;8.37;87.23;100844.13;5023181;28;20112;-74
2022/09/30 04:22:51;;;;;;;4.63;3.17;;;;;;;8.39;86.73;100852.94;5014663;28;20083;-75
2022/09/30 04:25:16;;;;;;;4.68;3.58;;;;;;;8.41;87.18;100849.78;5027765;28;20028;-74
2022/09/30 04:27:42;;;;;;;6.07;3.90;;;;;;;8.38;86.42;100845.72;5028529;28;20033;-74
2022/09/30 04:30:07;;;;;;;5.88;3.78;;;;;;;8.33;86.87;100843.22;5020451;28;20037;-75
2022/09/30 04:32:33;;;;;;;4.20;3.40;;;;;;;8.33;86.30;100844.03;5025855;28;20036;-74
2022/09/30 04:34:58;;;;;;;5.63;3.83;;;;;;;8.32;86.23;100853.56;5023266;28;20489;-74
2022/09/30 04:37:23;;;;;;;5.07;3.58;;;;;;;8.30;86.60;100855.88;5028596;28;20060;-75
2022/09/30 04:39:49;;;;;;;5.47;3.28;;;;;;;8.29;86.56;100861.84;5019783;28;20025;-75
2022/09/30 04:42:16;;;;;;;5.38;4.10;;;;;;;8.27;86.19;100870.56;5026518;28;20033;-75
2022/09/30 04:44:41;;;;;;;4.70;3.47;;;;;;;8.30;86.44;100869.03;5028862;28;20087;-75
2022/09/30 04:47:07;;;;;;;4.88;3.58;;;;;;;8.21;86.36;100869.22;5021557;28;20691;-74
2022/09/30 04:49:32;;;;;;;4.30;3.53;;;;;;;8.22;86.60;100870.88;5019900;28;20045;-75
2022/09/30 04:51:57;;;;;;;6.18;3.75;;;;;;;8.22;85.79;100870.88;5016731;28;20025;-75
2022/09/30 04:54:23;;;;;;;4.63;3.70;;;;;;;8.23;86.08;100872.47;5022127;28;20469;-75
2022/09/30 04:56:48;;;;;;;5.68;3.75;;;;;;;8.24;85.95;100881.63;5023325;28;20030;-74
2022/09/30 04:59:13;;;;;;;4.32;3.65;;;;;;;8.22;85.78;100875.59;5023112;28;20104;-75
2022/09/30 05:01:41;;;;;;;4.57;3.35;;;;;;;8.18;86.42;100875.53;5016021;28;20128;-75
2022/09/30 05:04:07;;;;;;;4.20;3.22;;;;;;;8.10;86.38;100873.75;5022518;28;20488;-74
2022/09/30 05:06:32;;;;;;;3.97;3.30;;;;;;;8.12;85.88;100877.00;5021648;28;20037;-75
2022/09/30 05:08:57;;;;;;;4.57;3.80;;;;;;;8.12;85.74;100877.78;5025610;28;20503;-75
2022/09/30 05:11:23;;;;;;;6.13;3.97;;;;;;;8.04;86.49;100875.19;5029700;28;20037;-75
2022/09/30 05:13:49;;;;;;;4.30;3.25;;;;;;;8.09;86.08;100880.47;5018084;28;21493;-75
2022/09/30 05:16:16;;;;;;;5.47;3.88;;;;;;;8.01;86.08;100870.31;5021033;28;20032;-75
2022/09/30 05:18:44;;;;;;;4.32;3.30;;;;;;;8.03;85.93;100874.38;5021127;28;20039;-75
2022/09/30 05:21:11;;;;;;;5.20;3.50;;;;;;;8.04;85.90;100881.56;5021279;28;20039;-75
2022/09/30 05:23:37;;;;;;;3.80;3.38;;;;;;;8.06;85.65;100889.59;5019952;28;20091;-75
2022/09/30 05:26:05;;;;;;;5.97;3.13;;;;;;;7.99;85.32;100884.66;5013128;28;20041;-75
2022/09/30 05:28:31;;;;;;;5.18;3.38;;;;;;;7.96;85.69;100878.97;5025011;28;20033;-74
2022/09/30 05:30:59;;;;;;;4.82;3.55;;;;;;;7.97;85.91;100881.41;5020985;28;20048;-74
2022/09/30 05:33:26;;;;;;;5.07;3.63;;;;;;;7.93;86.00;100881.31;5011487;28;20730;-75
2022/09/30 05:35:51;;;;;;;5.68;4.05;;;;;;;7.98;85.56;100894.16;5015491;28;20037;-76
2022/09/30 05:38:17;;;;;;;5.57;3.90;;;;;;;7.89;85.91;100896.31;5018113;28;20025;-76
2022/09/30 05:40:42;;;;;;;6.43;4.35;;;;;;;7.87;86.02;100888.31;5017055;28;20105;-76
2022/09/30 05:43:09;;;;;;;5.75;3.72;;;;;;;7.96;85.58;100901.28;5014954;28;20033;-76
2022/09/30 05:45:34;;;;;;;5.35;3.58;;;;;;;7.95;85.97;100900.47;5016475;28;20041;-75
2022/09/30 05:48:00;;;;;;;6.32;4.38;;;;;;;7.89;85.95;100908.28;5016983;28;20029;-76
2022/09/30 05:50:26;;;;;;;5.47;4.05;;;;;;;7.86;86.50;100913.75;5013769;28;20087;-76
2022/09/30 05:52:51;;;;;;;7.70;3.85;;;;;;;7.89;85.75;100919.44;5015379;28;20562;-76
2022/09/30 05:55:19;;;;;;;5.85;3.88;;;;;;;7.89;86.33;100922.22;5024936;28;20041;-76
2022/09/30 05:57:47;;;;;;;5.72;4.00;;;;;;;7.87;85.76;100918.97;5021277;28;20401;-77
2022/09/30 06:00:13;;;;;;;7.30;4.57;;;;;;;7.87;85.62;100910.63;5019150;28;20061;-76
2022/09/30 06:02:40;;;;;;;8.48;4.28;;;;;;;7.85;86.05;100907.38;5020773;28;20761;-75
2022/09/30 06:05:06;;;;;;;5.25;4.05;;;;;;;7.87;85.72;100916.19;5013923;28;20440;-76
2022/09/30 06:07:33;;;;;;;10.00;4.18;;;;;;;7.82;86.23;100912.84;5021433;28;20095;-76
2022/09/30 06:09:58;;;;;;;5.20;4.25;;;;;;;7.79;86.32;100917.16;5020526;28;20044;-76
2022/09/30 06:12:26;;;;;;;6.32;4.60;;;;;;;7.96;88.13;100918.78;5017373;28;20034;-76
2022/09/30 06:14:51;;;;;;;4.97;4.18;;;;;;;7.89;86.39;100916.63;5015128;28;20041;-76
2022/09/30 06:17:18;;;;;;;8.85;3.92;;;;;;;8.52;98.22;100915.81;5015373;28;20029;-76
2022/09/30 06:19:43;;;;;;;8.10;4.93;;;;;;;8.02;86.41;100925.72;5020722;28;20549;-74
2022/09/30 06:22:08;;;;;;;7.45;4.90;;;;;;;7.65;88.73;100934.31;5017709;28;20034;-76
2022/09/30 06:24:34;;;;;;;9.48;5.03;;;;;;;7.81;87.71;100934.34;5023473;28;20029;-77
2022/09/30 06:26:59;;;;;;;6.38;4.65;;;;;;;7.87;86.92;100930.13;5014363;28;20133;-77
2022/09/30 06:29:24;;;;;;;8.80;4.65;;;;;;;7.87;86.58;100938.47;5015254;28;20044;-77
2022/09/30 06:31:50;;;;;;;6.32;4.60;;;;;;;7.87;86.65;100932.91;5019363;28;20409;-77
2022/09/30 06:34:15;;;;;;;9.77;4.70;;;;;;;7.88;86.49;100940.09;5017147;28;20084;-77
2022/09/30 06:36:40;;;;;;;8.13;5.18;;;;;;;7.87;86.88;100932.91;5013546;28;20444;-76
2022/09/30 06:39:06;;;;;;;9.35;5.05;;;;;;;7.87;86.36;100935.69;5022176;28;20459;-76
2022/09/30 06:41:32;;;;;;;7.70;5.55;;;;;;;7.88;87.12;100937.31;5025787;28;20072;-76
2022/09/30 06:43:57;;;;;;;7.15;4.95;;;;;;;7.89;87.04;100944.50;5017206;28;20033;-77
2022/09/30 06:46:24;;;;;;;7.88;4.35;;;;;;;7.83;87.21;100926.44;5014906;28;20029;-76
2022/09/30 06:48:53;;;;;;;6.65;5.00;;;;;;;7.88;87.39;100936.50;5013476;28;20061;-75
2022/09/30 06:51:19;;;;;;;8.32;5.18;;;;;;;7.91;87.22;100939.38;5018275;28;20469;-77
2022/09/30 06:53:44;;;;;;;33.45;10.57;;;;;;;9.00;89.35;100932.41;5007740;28;20033;-75
2022/09/30 06:56:10;;;;;;;14.65;5.60;;;;;;;8.28;88.40;100935.50;5028157;28;20029;-75
2022/09/30 06:58:35;;;;;;;11.43;6.20;;;;;;;8.10;89.49;100932.28;5015012;28;20029;-76
2022/09/30 07:01:04;;;;;;;38.13;11.30;;;;;;;8.06;89.52;100937.78;5015586;28;20037;-75
2022/09/30 07:03:32;;;;;;;71.75;13.98;;;;;;;8.06;90.14;100936.97;5016112;28;20032;-74
2022/09/30 07:05:59;;;;;;;82.78;17.85;;;;;;;8.01;89.44;100932.47;5020926;28;20404;-74
2022/09/30 07:08:30;;;;;;;49.15;11.77;;;;;;;8.05;90.29;100932.56;5020167;28;20041;-74
2022/09/30 07:10:57;;;;;;;30.88;9.80;;;;;;;8.05;90.18;100935.34;5020086;28;20076;-73
2022/09/30 07:13:22;;;;;;;29.23;10.25;;;;;;;8.04;90.18;100937.31;5016763;28;20396;-73
2022/09/30 07:15:51;;;;;;;19.55;8.45;;;;;;;8.06;90.75;100940.56;5018038;28;20033;-74
2022/09/30 07:18:19;;;;;;;20.50;8.68;;;;;;;8.04;90.44;100942.91;5022295;28;20491;-74
2022/09/30 07:20:55;;;;;;;23.77;10.15;;;;;;;8.08;91.01;100943.00;5018495;28;20025;-74
2022/09/30 07:23:21;;;;;;;15.95;8.38;;;;;;;8.03;92.24;100937.69;5034482;28;20064;-74
2022/09/30 07:25:56;;;;;;;15.82;7.57;;;;;;;8.06;92.47;100931.41;5020360;28;20052;-75
2022/09/30 07:28:26;;;;;;;12.15;7.45;;;;;;;8.09;92.79;100933.44;5019322;28;20033;-75
2022/09/30 07:30:54;;;;;;;12.80;7.85;;;;;;;8.12;91.98;100930.75;5013556;28;20033;-75
2022/09/30 07:33:19;;;;;;;13.25;7.32;;;;;;;8.19;91.74;100935.69;5019538;28;20034;-75
2022/09/30 07:35:52;;;;;;;15.57;7.90;;;;;;;8.18;92.22;100936.88;5022521;28;20044;-74
2022/09/30 07:38:18;;;;;;;;;;;;;;;8.22;91.83;100943.38;5017784;28;20394;-73
2022/09/30 07:41:01;;;;;;;15.43;8.30;;;;;;;8.26;91.30;100938.66;5017536;28;19932;-74
2022/09/30 07:43:33;;;;;;;;;;;;;;;8.31;91.79;100945.97;5021564;28;20167;-76
2022/09/30 07:46:07;;;;;;;171.93;29.77;;;;;;;8.31;96.38;100946.75;5014932;28;19956;-74
2022/09/30 07:48:44;;;;;;;28.85;11.07;;;;;;;8.44;96.19;100943.91;5021923;28;20037;-73
2022/09/30 07:51:18;;;;;;;32.10;9.77;;;;;;;8.34;93.90;100937.66;5016787;28;20033;-74
2022/09/30 07:53:46;;;;;;;40.75;10.43;;;;;;;8.40;92.66;100942.97;5031287;28;20026;-74
2022/09/30 07:56:12;;;;;;;18.05;9.90;;;;;;;8.65;94.63;100946.41;5011944;28;20440;-74
2022/09/30 07:58:38;;;;;;;16.40;10.95;;;;;;;8.57;96.11;100941.81;5018833;28;20038;-74
2022/09/30 08:01:08;;;;;;;19.75;10.20;;;;;;;8.75;95.60;100938.28;5016893;28;20041;-74
2022/09/30 08:03:37;;;;;;;15.73;10.68;;;;;;;8.90;95.05;100935.81;5016961;28;20117;-73
2022/09/30 08:06:11;;;;;;;13.85;10.43;;;;;;;8.95;94.64;100936.31;5020283;28;20116;-74
2022/09/30 08:08:37;;;;;;;14.68;8.98;;;;;;;9.08;93.75;100933.38;5020000;28;20045;-74
2022/09/30 08:11:04;;;;;;;12.40;8.35;;;;;;;9.09;93.75;100924.66;5021765;28;20065;-74
2022/09/30 08:13:30;;;;;;;13.45;8.65;;;;;;;9.44;92.92;100934.91;5022821;28;20037;-74
2022/09/30 08:15:55;;;;;;;14.35;9.63;;;;;;;9.44;93.24;100929.31;5024595;28;20501;-75
2022/09/30 08:18:20;;;;;;;12.43;8.80;;;;;;;9.47;92.42;100928.59;5017661;28;20029;-74
2022/09/30 08:20:46;;;;;;;14.13;8.38;;;;;;;9.57;93.68;100932.78;5017792;28;20558;-74
2022/09/30 08:23:11;;;;;;;16.50;9.40;;;;;;;9.54;92.86;100937.13;5037361;28;20448;-73
2022/09/30 08:25:36;;;;;;;17.88;9.38;;;;;;;9.75;91.33;100935.91;5027466;28;20154;-73
2022/09/30 08:28:02;;;;;;;11.45;8.20;;;;;;;10.01;90.83;100934.38;5018764;28;20041;-74
2022/09/30 08:30:27;;;;;;;12.32;8.63;;;;;;;9.99;90.68;100937.53;5016731;28;20089;-74
2022/09/30 08:32:53;;;;;;;13.77;8.77;;;;;;;10.08;91.25;100942.91;5020936;28;20025;-74
2022/09/30 08:35:18;;;;;;;17.70;9.30;;;;;;;10.29;90.14;100946.09;5020588;28;20038;-76
2022/09/30 08:37:44;;;;;;;14.50;9.00;;;;;;;10.18;90.14;100947.84;5019519;28;20456;-76
2022/09/30 08:40:18;;;;;;;154.60;27.48;;;;;;;10.30;90.33;100953.28;5018775;28;20033;-76
2022/09/30 08:42:58;;;;;;;18.08;10.30;;;;;;;10.39;90.26;100950.22;5021635;28;20068;-76
2022/09/30 08:45:36;;;;;;;54.65;15.32;;;;;;;10.26;91.69;100957.97;5022444;28;20120;-76
2022/09/30 08:48:30;;;;;;;30.65;11.65;;;;;;;10.51;90.22;100957.63;5018625;28;20040;-76
2022/09/30 08:51:14;;;;;;;25.17;9.82;;;;;;;10.59;89.95;100959.34;5009484;28;20453;-76
2022/09/30 08:53:42;;;;;;;19.70;11.77;;;;;;;10.64;89.92;100949.81;5019016;28;20539;-76
2022/09/30 08:56:24;;;;;;;16.38;10.98;;;;;;;10.52;91.38;100948.03;5023385;28;20107;-76
2022/09/30 08:59:00;;;;;;;12.70;9.25;;;;;;;10.83;90.94;100938.50;5026169;28;20031;-74
2022/09/30 09:01:32;;;;;;;16.17;9.60;;;;;;;11.05;90.12;100952.81;5024027;28;21135;-74
2022/09/30 09:04:03;;;;;;;15.68;9.20;;;;;;;10.94;89.87;100947.06;5022283;28;20044;-74
2022/09/30 09:07:03;;;;;;;213.68;30.23;;;;;;;11.50;93.28;100940.56;5022881;28;20500;-76
2022/09/30 09:09:35;;;;;;;22.50;8.93;;;;;;;11.21;89.69;100941.41;5021552;28;20581;-75
2022/09/30 09:12:13;;;;;;;16.75;9.35;;;;;;;11.18;89.11;100938.19;5020266;28;20041;-75
2022/09/30 09:14:49;;;;;;;16.48;9.57;;;;;;;11.37;88.20;100936.41;5016823;28;20478;-75
2022/09/30 09:17:30;;;;;;;23.27;10.73;;;;;;;11.32;87.86;100939.53;5019952;28;20486;-75
2022/09/30 09:20:02;;;;;;;347.10;55.60;;;;;;;11.44;89.12;100938.50;5021756;28;20044;-75
2022/09/30 09:22:30;;;;;;;121.13;23.42;;;;;;;11.59;87.70;100935.47;5013290;28;20022;-75
2022/09/30 09:24:56;;;;;;;50.03;16.90;;;;;;;11.85;87.65;100941.34;5031779;28;20378;-74
2022/09/30 09:27:40;;;;;;;50.53;13.40;;;;;;;11.76;87.93;100948.09;5024396;28;20500;-75
2022/09/30 09:30:19;;;;;;;27.90;10.32;;;;;;;11.71;88.41;100950.41;5022117;28;20128;-74
2022/09/30 09:32:51;;;;;;;26.80;9.70;;;;;;;11.95;87.92;100960.31;5019801;28;20112;-74
2022/09/30 09:35:38;;;;;;;16.23;9.02;;;;;;;11.81;88.04;100955.34;5023709;28;20060;-74
2022/09/30 09:38:51;;;;;;;40.35;12.88;;;;;;;12.11;89.01;100960.88;5023745;28;20120;-73
2022/09/30 09:41:38;;;;;;;22.55;10.35;;;;;;;12.38;86.60;100950.28;5009862;28;20508;-74
2022/09/30 09:44:21;;;;;;;21.00;9.85;;;;;;;12.44;86.91;100947.94;5019484;28;20524;-74
2022/09/30 09:46:54;;;;;;;25.90;9.85;;;;;;;12.63;85.87;100955.28;5019773;28;20394;-74
2022/09/30 09:49:19;;;;;;;13.13;8.90;;;;;;;12.59;86.22;100951.66;5024048;28;20113;-74
2022/09/30 09:52:11;;;;;;;19.70;9.05;;;;;;;12.71;85.84;100948.53;5018917;28;20512;-74
2022/09/30 09:54:46;;;;;;;15.77;8.75;;;;;;;12.88;84.62;100954.63;5007713;28;20146;-75
2022/09/30 09:57:15;;;;;;;13.43;8.20;;;;;;;12.97;85.15;100944.66;5020250;28;20049;-74
2022/09/30 10:02:59;;;;;;;14.57;8.55;;;;;;;13.18;82.71;100943.97;5006644;28;20048;-74
2022/09/30 10:05:25;;;;;;;13.23;8.30;;;;;;;12.81;83.40;100944.97;5016168;28;20124;-75
2022/09/30 10:08:09;;;;;;;17.20;7.85;;;;;;;13.02;83.46;100937.84;5019590;28;20108;-74
2022/09/30 10:10:58;;;;;;;12.82;5.70;;;;;;;12.46;84.81;100939.94;5016244;28;20955;-73
2022/09/30 10:13:30;;;;;;;14.30;5.22;;;;;;;12.93;82.44;100931.81;5016907;28;20497;-74
2022/09/30 10:16:00;;;;;;;14.38;6.18;;;;;;;13.03;82.02;100942.28;5017233;28;20030;-74
2022/09/30 10:18:33;;;;;;;118.68;14.25;;;;;;;13.01;81.99;100941.88;5022170;28;20029;-74
2022/09/30 10:21:18;;;;;;;52.95;10.90;;;;;;;12.84;83.35;100936.94;5023719;28;20033;-76
2022/09/30 10:23:43;;;;;;;25.45;11.52;;;;;;;13.00;85.09;100934.63;5017979;28;20537;-76
2022/09/30 10:26:14;;;;;;;14.82;10.07;;;;;;;13.36;84.08;100934.84;5016383;28;20021;-76
2022/09/30 10:28:51;;;;;;;17.60;11.80;;;;;;;13.59;81.69;100926.88;5017138;28;20551;-75
2022/09/30 10:31:43;;;;;;;15.90;9.80;;;;;;;13.51;83.50;100927.25;5025841;28;20036;-75
2022/09/30 10:34:21;;;;;;;15.27;10.50;;;;;;;13.22;83.81;100930.75;5017648;28;20409;-76
2022/09/30 10:36:47;;;;;;;15.80;10.65;;;;;;;13.14;82.60;100929.09;5021184;28;20112;-75
2022/09/30 10:39:24;;;;;;;18.25;11.05;;;;;;;13.52;81.40;100921.25;5022071;28;22999;-75
2022/09/30 10:42:01;;;;;;;50.13;13.27;;;;;;;13.58;82.39;100925.28;5020329;28;20029;-74
2022/09/30 10:44:27;;;;;;;23.05;11.77;;;;;;;13.89;81.63;100922.13;5020149;28;20090;-74
2022/09/30 10:46:59;;;;;;;20.80;14.25;;;;;;;13.69;81.48;100930.13;5023243;28;20026;-74
2022/09/30 10:49:35;;;;;;;24.98;13.07;;;;;;;13.47;81.26;100930.06;5019936;28;20029;-73
2022/09/30 10:52:01;;;;;;;16.63;12.30;;;;;;;13.46;81.55;100925.63;5019474;28;20493;-74
2022/09/30 10:54:38;;;;;;;16.95;11.68;;;;;;;13.45;81.61;100926.84;5024081;28;20037;-74
2022/09/30 10:57:04;;;;;;;11.27;7.35;;;;;;;13.40;78.76;100924.41;5024110;28;20040;-74
2022/09/30 10:59:35;;;;;;;12.27;4.90;;;;;;;13.60;76.99;100920.06;5018898;28;20397;-74
2022/09/30 11:02:29;;;;;;;6.93;3.80;;;;;;;13.65;75.07;100909.63;5020386;28;20045;-74
2022/09/30 11:05:04;;;;;;;5.53;3.08;;;;;;;13.79;75.85;100918.88;5020714;28;20029;-75
2022/09/30 11:07:41;;;;;;;7.32;3.22;;;;;;;13.62;77.86;100920.47;5018796;28;20044;-73
2022/09/30 11:10:40;;;;;;;11.13;4.78;;;;;;;13.60;75.46;100908.81;5019440;28;20762;-73
2022/09/30 11:13:21;;;;;;;8.65;4.50;;;;;;;13.81;75.50;100905.22;5018944;28;20384;-73
2022/09/30 11:16:04;;;;;;;9.13;3.70;;;;;;;14.20;72.77;100895.19;5022509;28;20112;-74
2022/09/30 11:18:29;;;;;;;;;;;;;;;14.13;70.90;100898.81;5017020;28;20033;-75
2022/09/30 11:20:59;;;;;;;4.00;2.45;;;;;;;14.15;72.24;100896.41;5025070;28;19963;-75
2022/09/30 11:23:44;;;;;;;5.97;2.28;;;;;;;13.96;73.46;100905.25;5023139;28;20029;-76
2022/09/30 11:26:24;;;;;;;9.80;3.20;;;;;;;14.05;71.50;100899.22;5019777;28;20499;-76
2022/09/30 11:29:13;;;;;;;4.38;2.47;;;;;;;14.12;72.88;100890.78;5018671;28;20412;-75
2022/09/30 11:31:47;;;;;;;3.92;2.60;;;;;;;14.46;71.06;100893.16;5014939;28;20080;-75
2022/09/30 11:34:46;;;;;;;5.55;2.92;;;;;;;14.74;70.15;100887.50;5027059;28;20029;-75
2022/09/30 11:37:33;;;;;;;5.68;2.70;;;;;;;14.90;68.09;100884.22;5028877;28;20033;-75
2022/09/30 11:40:33;;;;;;;7.35;3.33;;;;;;;14.66;69.02;100874.66;5026941;28;20033;-75
2022/09/30 11:43:06;;;;;;;6.18;3.00;;;;;;;14.42;69.61;100885.53;5025502;28;20041;-74
2022/09/30 11:45:44;;;;;;;6.63;3.58;;;;;;;14.27;69.62;100883.13;5029939;28;20017;-75
2022/09/30 11:48:18;;;;;;;8.45;3.30;;;;;;;14.59;69.05;100885.94;5030709;28;20048;-75
2022/09/30 11:51:14;;;;;;;6.45;2.90;;;;;;;14.83;70.63;100887.88;5029776;28;20029;-75
2022/09/30 11:53:55;;;;;;;5.88;2.90;;;;;;;14.73;68.25;100868.19;5020849;28;20112;-75